Time;durP1;ratioP1;P1;durP2;ratioP2;P2;SDS_P1;SDS_P2;PMS_P1;PMS_P2;Temp;Humidity;BMP_temperature;BMP_pressure;BME280_temperature;BME280_humidity;BME280_pressure;Samples;Min_cycle;Max_cycle;Signal;HPM_P1;HPM_P2
2022/10/06 00:00:55;;;;;;;2.97;0.80;;;15.20;99.90;;;;;;5041516;28;20450;-81
2022/10/06 00:03:23;;;;;;;3.30;0.90;;;15.20;99.90;;;;;;5042940;28;20488;-83
2022/10/06 00:05:51;;;;;;;2.83;1.00;;;15.20;99.90;;;;;;5044947;28;20443;-81
2022/10/06 00:08:20;;;;;;;2.17;0.93;;;15.10;99.90;;;;;;5042638;28;20447;-82
2022/10/06 00:10:49;;;;;;;3.40;0.90;;;15.20;99.90;;;;;;5045630;28;20497;-82
2022/10/06 00:13:17;;;;;;;3.83;1.40;;;15.10;99.90;;;;;;5041676;28;20450;-82
2022/10/06 00:15:45;;;;;;;3.17;1.20;;;15.10;99.90;;;;;;5045521;28;20852;-82
2022/10/06 00:18:13;;;;;;;2.60;1.20;;;15.10;99.90;;;;;;5042652;28;20467;-82
2022/10/06 00:20:42;;;;;;;2.97;1.30;;;15.10;99.90;;;;;;5043861;28;20558;-82
2022/10/06 00:23:11;;;;;;;2.87;1.23;;;15.10;99.90;;;;;;5043576;28;20458;-82
2022/10/06 00:25:39;;;;;;;2.90;1.50;;;15.10;99.90;;;;;;5042131;28;20473;-80
2022/10/06 00:28:09;;;;;;;3.17;1.50;;;15.10;99.90;;;;;;5042329;28;20451;-81
2022/10/06 00:30:37;;;;;;;3.07;1.50;;;15.10;99.90;;;;;;5042089;28;20455;-83
2022/10/06 00:33:05;;;;;;;5.00;1.23;;;15.10;99.90;;;;;;5044746;28;20489;-81
2022/10/06 00:35:34;;;;;;;4.03;1.60;;;15.10;99.90;;;;;;5044113;28;20493;-82
2022/10/06 00:38:04;;;;;;;2.53;1.10;;;15.10;99.90;;;;;;5043717;28;20493;-83
2022/10/06 00:40:33;;;;;;;2.57;1.10;;;15.10;99.90;;;;;;5043625;28;20479;-82
2022/10/06 00:43:03;;;;;;;3.03;1.00;;;15.10;99.90;;;;;;5043714;28;20474;-81
2022/10/06 00:45:38;;;;;;;2.60;1.00;;;15.10;99.90;;;;;;5043403;28;20530;-81
2022/10/06 00:48:12;;;;;;;3.80;1.10;;;15.10;99.90;;;;;;5044267;28;20433;-80
2022/10/06 00:50:42;;;;;;;5.60;1.20;;;15.10;99.90;;;;;;5040837;28;20434;-80
2022/10/06 00:53:12;;;;;;;5.50;1.40;;;15.10;99.90;;;;;;5041048;28;20451;-81
2022/10/06 00:55:40;;;;;;;3.13;1.27;;;15.10;99.90;;;;;;5042960;28;20482;-81
2022/10/06 00:58:10;;;;;;;4.03;0.97;;;15.00;99.90;;;;;;5044900;28;20455;-81
2022/10/06 01:00:43;;;;;;;3.80;1.13;;;15.00;99.90;;;;;;5044636;28;20462;-81
2022/10/06 01:03:16;;;;;;;5.60;1.27;;;15.00;99.90;;;;;;5046168;28;20474;-81
2022/10/06 01:05:48;;;;;;;3.60;1.10;;;15.00;99.90;;;;;;5044878;28;20474;-81
2022/10/06 01:08:17;;;;;;;2.93;0.90;;;15.00;99.90;;;;;;5042868;28;20929;-80
2022/10/06 01:10:45;;;;;;;4.27;1.43;;;15.00;99.90;;;;;;5041753;28;20458;-83
2022/10/06 01:13:14;;;;;;;3.40;1.23;;;14.90;99.90;;;;;;5042776;28;20975;-82
2022/10/06 01:15:49;;;;;;;2.70;0.93;;;14.90;99.90;;;;;;5043950;28;20482;-82
2022/10/06 01:18:20;;;;;;;2.53;1.27;;;14.90;99.90;;;;;;5044837;28;20446;-80
2022/10/06 01:20:53;;;;;;;3.17;1.20;;;14.80;99.90;;;;;;5045372;28;20463;-81
2022/10/06 01:23:23;;;;;;;3.90;1.20;;;14.80;99.90;;;;;;5044681;28;20439;-80
2022/10/06 01:25:52;;;;;;;3.47;1.20;;;14.80;99.90;;;;;;5045004;28;20952;-82
2022/10/06 01:28:21;;;;;;;6.30;1.20;;;14.80;99.90;;;;;;5041361;28;20502;-82
2022/10/06 01:30:52;;;;;;;6.13;1.20;;;14.80;99.90;;;;;;5041036;28;20466;-83
2022/10/06 01:33:23;;;;;;;2.70;1.10;;;14.70;99.90;;;;;;5040890;28;20445;-80
2022/10/06 01:35:53;;;;;;;3.03;1.40;;;14.70;99.90;;;;;;5041568;28;20462;-82
2022/10/06 01:38:24;;;;;;;3.70;1.30;;;14.70;99.90;;;;;;5040699;28;20440;-82
2022/10/06 01:40:58;;;;;;;6.50;2.13;;;14.70;99.90;;;;;;5041425;28;20516;-81
2022/10/06 01:43:26;;;;;;;4.70;1.40;;;14.70;99.90;;;;;;5042321;28;20431;-80
2022/10/06 01:45:55;;;;;;;3.80;1.10;;;14.70;99.90;;;;;;5043353;28;20882;-82
2022/10/06 01:48:24;;;;;;;5.80;1.23;;;14.60;99.90;;;;;;5046664;28;20860;-82
2022/10/06 01:50:55;;;;;;;3.10;1.30;;;14.60;99.90;;;;;;5045702;28;20442;-81
2022/10/06 01:53:25;;;;;;;5.23;2.00;;;14.60;99.90;;;;;;5045546;28;20811;-81
2022/10/06 01:55:58;;;;;;;6.73;1.30;;;14.60;99.90;;;;;;5046117;28;20454;-82
2022/10/06 01:58:28;;;;;;;4.80;1.40;;;14.60;99.90;;;;;;5045246;28;20465;-81
2022/10/06 02:00:57;;;;;;;4.60;1.30;;;14.60;99.90;;;;;;5044332;28;20462;-82
2022/10/06 02:03:25;;;;;;;3.37;1.10;;;14.60;99.90;;;;;;5043478;28;20443;-81
2022/10/06 02:05:56;;;;;;;8.90;1.53;;;14.60;99.90;;;;;;5043543;28;20802;-84
2022/10/06 02:08:26;;;;;;;8.70;1.60;;;14.50;99.90;;;;;;5044344;28;20803;-83
2022/10/06 02:10:57;;;;;;;3.93;1.30;;;14.50;99.90;;;;;;5043838;28;20462;-84
2022/10/06 02:13:29;;;;;;;4.87;1.30;;;14.50;99.90;;;;;;5042499;28;20982;-82
2022/10/06 02:15:58;;;;;;;4.23;1.53;;;14.50;99.90;;;;;;5044360;28;20801;-83
2022/10/06 02:18:26;;;;;;;3.57;1.40;;;14.50;99.90;;;;;;5043990;28;20441;-82
2022/10/06 02:20:55;;;;;;;6.63;1.40;;;14.50;99.90;;;;;;5045351;28;20473;-82
2022/10/06 02:23:25;;;;;;;5.83;1.57;;;14.40;99.90;;;;;;5041571;28;20937;-82
2022/10/06 02:25:59;;;;;;;5.67;1.30;;;14.40;99.90;;;;;;5043557;28;20442;-82
2022/10/06 02:28:28;;;;;;;4.20;1.33;;;14.40;99.90;;;;;;5041863;28;20539;-82
2022/10/06 02:31:01;;;;;;;5.20;1.60;;;14.40;99.90;;;;;;5041572;28;20454;-82
2022/10/06 02:33:30;;;;;;;4.03;1.40;;;14.40;99.90;;;;;;5040614;28;20474;-82
2022/10/06 02:35:58;;;;;;;6.13;1.57;;;14.30;99.90;;;;;;5041426;28;20446;-81
2022/10/06 02:38:31;;;;;;;6.20;1.37;;;14.30;99.90;;;;;;5040400;28;20526;-81
2022/10/06 02:41:01;;;;;;;8.00;1.80;;;14.30;99.90;;;;;;5042447;28;20825;-82
2022/10/06 02:43:30;;;;;;;5.20;1.50;;;14.30;99.90;;;;;;5041047;28;20443;-82
2022/10/06 02:46:03;;;;;;;6.53;1.77;;;14.30;99.90;;;;;;5041522;28;20454;-82
2022/10/06 02:48:33;;;;;;;5.17;1.27;;;14.30;99.90;;;;;;5040726;28;20471;-82
2022/10/06 02:51:05;;;;;;;5.43;1.40;;;14.30;99.90;;;;;;5043061;28;20486;-83
2022/10/06 02:53:36;;;;;;;4.97;1.60;;;14.20;99.90;;;;;;5046302;28;20443;-81
2022/10/06 02:56:06;;;;;;;6.90;2.30;;;14.20;99.90;;;;;;5044803;28;20814;-82
2022/10/06 02:58:35;;;;;;;4.80;2.00;;;14.20;99.90;;;;;;5042859;28;20445;-83
2022/10/06 03:01:09;;;;;;;5.80;1.50;;;14.20;99.90;;;;;;5045692;28;20474;-83
2022/10/06 03:03:38;;;;;;;5.70;1.83;;;14.10;99.90;;;;;;5044926;28;20880;-82
2022/10/06 03:06:20;;;;;;;6.10;2.00;;;14.10;99.90;;;;;;5045061;28;20459;-82
2022/10/06 03:08:57;;;;;;;3.87;1.57;;;14.10;99.90;;;;;;5045433;28;20439;-81
2022/10/06 03:11:27;;;;;;;4.83;1.83;;;14.10;99.90;;;;;;5043422;28;20470;-81
2022/10/06 03:13:57;;;;;;;6.73;1.73;;;14.10;99.90;;;;;;5042674;28;20493;-81
2022/10/06 03:16:28;;;;;;;4.70;1.80;;;14.00;99.90;;;;;;5042990;28;20455;-83
2022/10/06 03:18:58;;;;;;;5.93;2.00;;;14.00;99.90;;;;;;5045988;28;20443;-81
2022/10/06 03:21:29;;;;;;;6.07;1.80;;;14.00;99.90;;;;;;5045105;28;20467;-82
2022/10/06 03:23:59;;;;;;;4.63;1.80;;;14.00;99.90;;;;;;5043384;28;20505;-83
2022/10/06 03:26:30;;;;;;;5.37;1.90;;;14.00;99.90;;;;;;5040810;28;20473;-82
2022/10/06 03:28:59;;;;;;;5.20;1.73;;;13.90;99.90;;;;;;5041553;28;20804;-82
2022/10/06 03:31:27;;;;;;;5.23;1.83;;;13.90;99.90;;;;;;5041270;28;20458;-80
2022/10/06 03:33:56;;;;;;;10.37;2.10;;;13.90;99.90;;;;;;5042425;28;20919;-82
2022/10/06 03:36:28;;;;;;;6.17;1.40;;;13.90;99.90;;;;;;5043818;28;20850;-83
2022/10/06 03:38:58;;;;;;;5.00;1.70;;;13.90;99.90;;;;;;5045163;28;20439;-83
2022/10/06 03:41:28;;;;;;;7.00;2.20;;;13.90;99.90;;;;;;5044940;28;20459;-82
2022/10/06 03:43:58;;;;;;;7.30;1.80;;;13.90;99.90;;;;;;5046381;28;21126;-82
2022/10/06 03:46:29;;;;;;;7.40;2.00;;;13.90;99.90;;;;;;5048876;28;20443;-83
2022/10/06 03:48:59;;;;;;;5.30;1.70;;;13.80;99.90;;;;;;5049361;28;20466;-84
2022/10/06 03:51:32;;;;;;;5.93;2.13;;;13.80;99.90;;;;;;5054928;28;20467;-81
2022/10/06 03:54:02;;;;;;;5.00;1.90;;;13.80;99.90;;;;;;5056591;28;20474;-82
2022/10/06 03:56:35;;;;;;;4.67;1.70;;;13.80;99.90;;;;;;5055562;28;20446;-81
2022/10/06 03:59:06;;;;;;;5.67;1.93;;;13.70;99.90;;;;;;5052275;28;20467;-82
2022/10/06 04:01:36;;;;;;;7.20;2.10;;;13.70;99.90;;;;;;5055558;28;20449;-84
2022/10/06 04:04:08;;;;;;;6.43;2.20;;;13.70;99.90;;;;;;5056448;28;20455;-82
2022/10/06 04:06:38;;;;;;;5.63;2.00;;;13.70;99.90;;;;;;5056683;28;20433;-82
2022/10/06 04:09:13;;;;;;;9.20;1.77;;;13.70;99.90;;;;;;5052134;28;20819;-82
2022/10/06 04:11:45;;;;;;;6.43;1.80;;;13.70;99.90;;;;;;5054703;28;20446;-83
2022/10/06 04:14:15;;;;;;;8.30;2.27;;;13.60;99.90;;;;;;5053819;28;20542;-81
2022/10/06 04:16:46;;;;;;;6.47;2.23;;;13.60;99.90;;;;;;5053336;28;20486;-83
2022/10/06 04:19:18;;;;;;;7.53;2.50;;;13.60;99.90;;;;;;5054863;28;20546;-81
2022/10/06 04:21:50;;;;;;;6.83;2.40;;;13.60;99.90;;;;;;5056710;28;20475;-81
2022/10/06 04:24:23;;;;;;;7.27;1.77;;;13.60;99.90;;;;;;5055022;28;20473;-83
2022/10/06 04:26:52;;;;;;;5.50;1.90;;;13.50;99.90;;;;;;5055007;28;20497;-81
2022/10/06 04:29:21;;;;;;;5.40;2.20;;;13.50;99.90;;;;;;5051751;28;20451;-80
2022/10/06 04:31:56;;;;;;;5.37;2.30;;;13.50;99.90;;;;;;5057975;28;20819;-82
2022/10/06 04:34:32;;;;;;;5.90;2.00;;;13.50;99.90;;;;;;5047655;28;20493;-82
2022/10/06 04:37:01;;;;;;;7.70;2.37;;;13.40;99.90;;;;;;5046479;28;20481;-81
2022/10/06 04:39:30;;;;;;;6.30;1.77;;;13.40;99.90;;;;;;5044547;28;20473;-81
2022/10/06 04:42:00;;;;;;;5.30;1.70;;;13.40;99.90;;;;;;5044989;28;20493;-81
2022/10/06 04:44:30;;;;;;;8.23;2.67;;;13.40;99.90;;;;;;5044081;28;20505;-81
2022/10/06 04:47:01;;;;;;;8.03;2.77;;;13.40;99.90;;;;;;5045363;28;20439;-80
2022/10/06 04:49:30;;;;;;;4.60;1.70;;;13.40;99.90;;;;;;5043196;28;20453;-83
2022/10/06 04:51:59;;;;;;;6.53;2.30;;;13.40;99.90;;;;;;5043756;28;20454;-80
2022/10/06 04:54:31;;;;;;;6.50;2.00;;;13.30;99.90;;;;;;5043171;28;20473;-81
2022/10/06 04:57:03;;;;;;;6.17;2.30;;;13.30;99.90;;;;;;5042561;28;20855;-80
2022/10/06 05:02:18;;;;;;;7.20;2.00;;;13.30;99.90;;;;;;5043825;28;20463;-79
2022/10/06 05:04:50;;;;;;;8.07;2.60;;;13.30;99.90;;;;;;5043588;28;21018;-81
2022/10/06 05:07:20;;;;;;;6.63;2.60;;;13.30;99.90;;;;;;5043499;28;20454;-81
2022/10/06 05:09:49;;;;;;;7.07;2.10;;;13.30;99.90;;;;;;5041704;28;20546;-81
2022/10/06 05:12:18;;;;;;;8.30;3.13;;;13.20;99.90;;;;;;5043434;28;20431;-80
2022/10/06 05:14:47;;;;;;;8.77;2.27;;;13.20;99.90;;;;;;5042040;28;20471;-80
2022/10/06 05:17:15;;;;;;;5.93;1.93;;;13.20;99.90;;;;;;5037684;28;20776;-80
2022/10/06 05:19:44;;;;;;;10.13;2.47;;;13.20;99.90;;;;;;5037345;28;20455;-80
2022/10/06 05:22:12;;;;;;;10.70;2.77;;;13.20;99.90;;;;;;5038865;28;20880;-80
2022/10/06 05:24:40;;;;;;;8.53;2.80;;;13.20;99.90;;;;;;5037907;28;20951;-80
2022/10/06 05:27:10;;;;;;;12.47;2.70;;;13.20;99.90;;;;;;5037192;28;20457;-79
2022/10/06 05:29:38;;;;;;;8.70;2.40;;;13.20;99.90;;;;;;5039239;28;20435;-80
2022/10/06 05:32:08;;;;;;;5.13;1.97;;;13.10;99.90;;;;;;5036980;28;20529;-79
2022/10/06 05:34:37;;;;;;;7.50;2.40;;;13.10;99.90;;;;;;5037486;28;20467;-79
2022/10/06 05:37:06;;;;;;;9.03;2.23;;;13.10;99.90;;;;;;5037580;28;20447;-80
2022/10/06 05:39:35;;;;;;;9.40;2.50;;;13.10;99.90;;;;;;5037413;28;20475;-81
2022/10/06 05:42:04;;;;;;;5.20;1.90;;;13.10;99.90;;;;;;5035505;28;20469;-80
2022/10/06 05:44:33;;;;;;;8.73;2.20;;;13.10;99.90;;;;;;5036763;28;20471;-81
2022/10/06 05:47:06;;;;;;;7.17;2.13;;;13.10;99.90;;;;;;5037796;28;20463;-81
2022/10/06 05:49:35;;;;;;;9.73;2.60;;;13.10;99.90;;;;;;5039243;28;20952;-81
2022/10/06 05:52:04;;;;;;;9.10;2.20;;;13.00;99.90;;;;;;5038341;28;20439;-80
2022/10/06 05:54:35;;;;;;;8.80;2.60;;;13.00;99.90;;;;;;5038629;28;20469;-80
2022/10/06 05:57:05;;;;;;;8.63;3.10;;;13.00;99.90;;;;;;5039582;28;20826;-80
2022/10/06 05:59:36;;;;;;;6.30;2.30;;;13.00;99.90;;;;;;5038795;28;20512;-81
2022/10/06 06:02:05;;;;;;;7.77;2.67;;;13.00;99.90;;;;;;5038595;28;20525;-79
2022/10/06 06:04:38;;;;;;;10.70;2.60;;;13.00;99.90;;;;;;5038230;28;20463;-80
2022/10/06 06:07:06;;;;;;;7.33;2.40;;;13.00;99.90;;;;;;5038085;28;20983;-79
2022/10/06 06:09:34;;;;;;;7.07;2.27;;;12.90;99.90;;;;;;5038050;28;20960;-79
2022/10/06 06:12:04;;;;;;;6.07;2.30;;;12.90;99.90;;;;;;5038164;28;20535;-80
2022/10/06 06:17:32;;;;;;;9.67;2.83;;;12.90;99.90;;;;;;5038058;28;20451;-81
2022/10/06 06:20:02;;;;;;;10.90;2.67;;;12.90;99.90;;;;;;5037347;28;20431;-80
2022/10/06 06:22:30;;;;;;;14.83;2.67;;;12.90;99.90;;;;;;5038478;28;20471;-79
2022/10/06 06:24:58;;;;;;;9.63;2.70;;;12.90;99.90;;;;;;5037881;28;20589;-80
2022/10/06 06:27:27;;;;;;;6.33;2.30;;;12.90;99.90;;;;;;5037388;28;20546;-81
2022/10/06 06:29:57;;;;;;;9.80;2.30;;;12.90;99.90;;;;;;5036941;28;20885;-80
2022/10/06 06:32:26;;;;;;;5.40;2.13;;;12.90;99.90;;;;;;5037932;28;20820;-79
2022/10/06 06:34:56;;;;;;;7.17;2.30;;;12.90;99.90;;;;;;5037258;28;20478;-80
2022/10/06 06:37:25;;;;;;;7.57;2.70;;;13.00;99.90;;;;;;5037414;28;20516;-79
2022/10/06 06:39:54;;;;;;;12.90;2.73;;;13.00;99.90;;;;;;5037182;28;20474;-81
2022/10/06 06:42:23;;;;;;;9.40;3.07;;;13.00;99.90;;;;;;5036328;28;21123;-79
2022/10/06 06:45:01;;;;;;;7.73;2.00;;;13.00;99.90;;;;;;5036358;28;20569;-78
2022/10/06 06:47:38;;;;;;;10.83;2.30;;;13.00;99.90;;;;;;5042360;28;20524;-81
2022/10/06 06:50:09;;;;;;;7.10;2.17;;;13.00;99.90;;;;;;5040834;28;20471;-80
2022/10/06 06:52:42;;;;;;;7.50;2.47;;;13.00;99.90;;;;;;5038968;28;20453;-79
2022/10/06 06:55:14;;;;;;;8.13;2.50;;;13.00;99.90;;;;;;5038179;28;20470;-79
2022/10/06 06:57:42;;;;;;;4.47;2.30;;;13.00;99.90;;;;;;5038106;28;20486;-79
2022/10/06 07:00:13;;;;;;;7.63;2.53;;;13.00;99.90;;;;;;5040230;28;20469;-79
2022/10/06 07:02:41;;;;;;;5.73;2.30;;;13.10;99.90;;;;;;5038928;28;20495;-80
2022/10/06 07:05:09;;;;;;;9.53;2.57;;;13.10;99.90;;;;;;5037089;28;20845;-79
2022/10/06 07:07:38;;;;;;;6.00;1.93;;;13.10;99.90;;;;;;5038138;28;20447;-78
2022/10/06 07:10:08;;;;;;;11.87;3.80;;;13.10;99.90;;;;;;5037658;28;20451;-79
2022/10/06 07:12:36;;;;;;;8.97;3.00;;;13.10;99.90;;;;;;5036545;28;20446;-78
2022/10/06 07:26:21;;;;;;;9.50;2.30;;;13.20;99.90;;;;;;5003606;28;20479;-82
2022/10/06 07:28:52;;;;;;;6.53;2.57;;;13.20;99.90;;;;;;5037310;28;20439;-80
2022/10/06 07:31:20;;;;;;;9.97;2.97;;;13.30;99.90;;;;;;5037136;28;20530;-80
2022/10/06 07:33:51;;;;;;;8.07;2.30;;;13.30;99.90;;;;;;5036836;28;20874;-79
2022/10/06 07:36:21;;;;;;;7.43;2.50;;;13.30;99.90;;;;;;5037246;28;20539;-80
2022/10/06 07:38:49;;;;;;;9.37;2.83;;;13.40;99.90;;;;;;5036839;28;20462;-80
2022/10/06 07:41:17;;;;;;;7.50;2.30;;;13.40;99.90;;;;;;5036888;28;20514;-81
2022/10/06 07:43:59;;;;;;;11.93;2.83;;;13.40;99.90;;;;;;5035812;28;20482;-81
2022/10/06 07:46:34;;;;;;;9.30;2.40;;;13.40;99.90;;;;;;5036655;28;20454;-79
2022/10/06 07:49:08;;;;;;;8.80;2.63;;;13.50;99.90;;;;;;5037752;28;20443;-81
2022/10/06 07:51:37;;;;;;;7.47;2.90;;;13.50;99.90;;;;;;5046022;28;20515;-81
2022/10/06 07:54:05;;;;;;;8.10;2.50;;;13.60;99.90;;;;;;5053565;28;20934;-78
2022/10/06 07:56:54;;;;;;;12.40;3.50;;;13.60;99.90;;;;;;5039363;28;20449;-79
2022/10/06 07:59:22;;;;;;;9.07;2.57;;;13.80;99.90;;;;;;5052346;28;20457;-80
2022/10/06 08:01:51;;;;;;;10.20;3.03;;;13.80;99.90;;;;;;5051370;28;20434;-80
2022/10/06 08:04:21;;;;;;;10.47;2.83;;;13.90;99.90;;;;;;5053455;28;20521;-81
2022/10/06 08:06:49;;;;;;;7.60;3.33;;;14.00;99.90;;;;;;5043045;28;20483;-79
2022/10/06 08:09:17;;;;;;;8.13;3.00;;;14.10;99.90;;;;;;5041304;28;20924;-81
2022/10/06 08:11:47;;;;;;;5.43;2.13;;;14.20;99.90;;;;;;5040441;28;20439;-79
2022/10/06 08:14:15;;;;;;;6.37;2.40;;;14.20;99.90;;;;;;5042545;28;21007;-82
2022/10/06 08:16:43;;;;;;;9.43;2.97;;;14.30;99.90;;;;;;5041041;28;20443;-81
2022/10/06 08:19:13;;;;;;;9.70;2.50;;;14.40;99.90;;;;;;5040054;28;20442;-80
2022/10/06 08:21:43;;;;;;;6.77;1.70;;;14.50;99.90;;;;;;5040598;28;20454;-81
2022/10/06 08:24:11;;;;;;;6.23;1.80;;;14.50;99.90;;;;;;5039947;28;20486;-79
2022/10/06 08:26:39;;;;;;;9.47;2.40;;;14.60;99.90;;;;;;5040740;28;20454;-80
2022/10/06 08:29:07;;;;;;;7.60;2.20;;;14.70;99.90;;;;;;5039339;28;20450;-80
2022/10/06 08:31:35;;;;;;;5.70;2.40;;;14.80;99.90;;;;;;5040915;28;20454;-79
2022/10/06 08:34:06;;;;;;;7.47;2.67;;;14.80;99.90;;;;;;5046911;28;20462;-80
2022/10/06 08:36:39;;;;;;;8.27;3.40;;;14.90;99.90;;;;;;5040367;28;20447;-80
2022/10/06 08:39:20;;;;;;;8.50;3.10;;;15.00;99.90;;;;;;5040049;28;20461;-80
2022/10/06 08:41:52;;;;;;;7.80;2.40;;;15.00;99.90;;;;;;5040202;28;20443;-80
2022/10/06 08:44:29;;;;;;;6.60;1.97;;;15.10;99.90;;;;;;5040346;28;20487;-81
2022/10/06 08:47:00;;;;;;;13.97;3.03;;;15.10;99.90;;;;;;5040219;28;20442;-80
2022/10/06 08:49:34;;;;;;;8.40;2.80;;;15.10;99.90;;;;;;5039281;28;20493;-81
2022/10/06 08:52:17;;;;;;;9.30;3.10;;;15.20;99.90;;;;;;5040169;28;20409;-80
2022/10/06 08:54:52;;;;;;;7.87;2.17;;;15.30;99.90;;;;;;5039481;28;20467;-81
2022/10/06 08:57:26;;;;;;;5.17;1.90;;;15.30;99.90;;;;;;5038578;28;20816;-81
2022/10/06 08:59:54;;;;;;;7.47;2.30;;;15.30;99.90;;;;;;5036874;28;20472;-80
2022/10/06 09:02:31;;;;;;;12.20;2.27;;;15.30;99.90;;;;;;5039492;28;20492;-81
2022/10/06 09:05:03;;;;;;;8.07;2.50;;;15.30;99.90;;;;;;5037280;28;20471;-81
2022/10/06 09:07:40;;;;;;;9.03;2.50;;;15.40;99.90;;;;;;5037847;28;20443;-81
2022/10/06 09:10:25;;;;;;;6.37;2.30;;;15.40;99.90;;;;;;5037660;28;20447;-79
2022/10/06 09:12:57;;;;;;;8.30;2.60;;;15.50;99.90;;;;;;5043029;28;20416;-81
2022/10/06 09:15:33;;;;;;;9.63;3.27;;;15.50;99.90;;;;;;5042448;28;20452;-81
2022/10/06 09:18:09;;;;;;;7.40;2.47;;;15.60;99.90;;;;;;5042557;28;20451;-82
2022/10/06 09:20:43;;;;;;;11.53;2.60;;;15.70;99.90;;;;;;5040706;28;20545;-82
2022/10/06 09:23:16;;;;;;;7.03;2.30;;;15.70;99.90;;;;;;5040386;28;20557;-82
2022/10/06 09:25:46;;;;;;;9.73;2.47;;;15.70;99.90;;;;;;5039264;28;20474;-80
2022/10/06 09:28:16;;;;;;;7.07;1.70;;;15.70;99.90;;;;;;5039450;28;20966;-81
2022/10/06 09:30:44;;;;;;;6.97;2.17;;;15.80;99.90;;;;;;5039434;28;20438;-81
2022/10/06 09:33:21;;;;;;;7.67;1.97;;;15.80;99.90;;;;;;5038788;28;20844;-82
2022/10/06 09:36:11;;;;;;;8.63;2.30;;;15.80;99.90;;;;;;5038944;28;20840;-82
2022/10/06 09:38:47;;;;;;;5.67;2.17;;;15.80;99.90;;;;;;5032798;28;20435;-80
2022/10/06 09:41:17;;;;;;;8.90;2.43;;;15.80;99.90;;;;;;5037934;28;20886;-82
2022/10/06 09:43:56;;;;;;;8.07;2.40;;;15.90;99.90;;;;;;5039599;28;20486;-82
2022/10/06 09:46:31;;;;;;;7.73;1.90;;;16.00;99.90;;;;;;5039336;28;20510;-80
2022/10/06 09:49:19;;;;;;;7.43;2.40;;;16.00;99.90;;;;;;5038095;28;20442;-82
2022/10/06 09:52:00;;;;;;;5.17;1.70;;;16.10;99.90;;;;;;5037588;28;20426;-82
2022/10/06 09:54:29;;;;;;;8.73;2.43;;;16.10;99.90;;;;;;5039498;28;20469;-81
2022/10/06 09:57:09;;;;;;;8.07;3.30;;;16.10;99.90;;;;;;5036838;28;20803;-81
2022/10/06 09:59:42;;;;;;;8.37;2.07;;;16.10;99.90;;;;;;5037535;28;20453;-83
2022/10/06 10:02:32;;;;;;;7.93;2.33;;;16.10;99.90;;;;;;5037777;28;20439;-81
2022/10/06 10:05:01;;;;;;;8.67;2.93;;;16.10;99.90;;;;;;5037283;28;20461;-81
2022/10/06 10:07:32;;;;;;;8.43;2.40;;;16.10;99.90;;;;;;5036689;28;20433;-81
2022/10/06 10:10:19;;;;;;;7.80;2.70;;;16.20;99.90;;;;;;5037531;28;20439;-83
2022/10/06 10:12:52;;;;;;;6.00;1.80;;;16.20;99.90;;;;;;5038567;28;20461;-81
2022/10/06 10:15:25;;;;;;;7.60;1.93;;;16.30;99.90;;;;;;5038739;28;20442;-82
2022/10/06 10:17:56;;;;;;;8.30;2.20;;;16.30;99.90;;;;;;5037090;28;20420;-81
2022/10/06 10:20:34;;;;;;;7.33;2.10;;;16.40;99.90;;;;;;5039613;28;20875;-80
2022/10/06 10:23:07;;;;;;;6.17;2.10;;;16.40;99.90;;;;;;5039675;28;20884;-82
2022/10/06 10:25:58;;;;;;;6.77;1.97;;;16.50;99.90;;;;;;5037431;28;20504;-82
2022/10/06 10:29:01;;;;;;;5.17;1.57;;;16.50;99.90;;;;;;5025824;28;20449;-80
2022/10/06 10:31:39;;;;;;;6.53;2.23;;;16.50;99.90;;;;;;4990969;28;20946;-79
2022/10/06 10:34:18;;;;;;;6.07;2.00;;;16.50;99.90;;;;;;5035647;28;20835;-80
2022/10/06 10:36:55;;;;;;;7.83;2.63;;;16.60;99.90;;;;;;5037840;28;20402;-80
2022/10/06 10:39:31;;;;;;;5.40;1.80;;;16.70;99.90;;;;;;5038305;28;20430;-79
2022/10/06 10:42:04;;;;;;;8.00;2.40;;;16.70;99.90;;;;;;5035340;28;20980;-80
2022/10/06 10:44:36;;;;;;;9.87;2.40;;;16.80;99.90;;;;;;5036043;28;20974;-81
2022/10/06 10:47:14;;;;;;;5.60;1.80;;;16.80;99.90;;;;;;5040256;28;20496;-83
2022/10/06 10:49:47;;;;;;;7.67;1.87;;;16.90;99.90;;;;;;5036723;28;20907;-80
2022/10/06 10:52:20;;;;;;;6.00;2.60;;;16.90;99.90;;;;;;5036664;28;20449;-81
2022/10/06 10:54:54;;;;;;;7.40;1.93;;;16.90;99.90;;;;;;5035530;28;20471;-81
2022/10/06 10:57:34;;;;;;;7.03;1.50;;;16.90;99.90;;;;;;5036866;28;20500;-82
2022/10/06 11:00:06;;;;;;;4.60;1.90;;;16.90;99.90;;;;;;5035482;28;20967;-76
2022/10/06 11:02:37;;;;;;;6.00;1.80;;;16.90;99.90;;;;;;5035881;28;20417;-81
2022/10/06 11:05:15;;;;;;;7.20;2.00;;;16.90;99.90;;;;;;5037551;28;20467;-80
2022/10/06 11:07:48;;;;;;;5.03;2.00;;;16.90;99.90;;;;;;5038575;28;20398;-81
2022/10/06 11:10:19;;;;;;;7.80;2.90;;;16.90;99.90;;;;;;5036525;28;20796;-80
2022/10/06 11:13:03;;;;;;;3.40;1.37;;;17.00;99.90;;;;;;5037917;28;20778;-81
2022/10/06 11:15:46;;;;;;;6.83;1.60;;;17.00;99.90;;;;;;5035877;28;20538;-80
2022/10/06 11:18:26;;;;;;;4.97;1.60;;;17.00;99.90;;;;;;5038164;28;20405;-82
2022/10/06 11:20:59;;;;;;;6.30;1.70;;;17.10;99.90;;;;;;5036685;28;20464;-81
2022/10/06 11:23:52;;;;;;;6.70;2.50;;;17.10;99.90;;;;;;5037252;28;20453;-81
2022/10/06 11:26:49;;;;;;;6.40;2.07;;;17.10;99.90;;;;;;5042689;28;20398;-82
2022/10/06 11:29:31;;;;;;;7.43;1.70;;;17.10;99.90;;;;;;5041478;28;20448;-81
2022/10/06 11:32:12;;;;;;;5.77;1.53;;;17.20;99.90;;;;;;5041413;28;20433;-81
2022/10/06 11:34:41;;;;;;;5.20;1.80;;;17.20;99.90;;;;;;5042159;28;20512;-82
2022/10/06 11:37:23;;;;;;;6.73;2.00;;;17.10;99.90;;;;;;5041616;28;20425;-81
2022/10/06 11:39:57;;;;;;;7.10;2.43;;;17.10;99.90;;;;;;5042627;28;20431;-81
2022/10/06 11:42:35;;;;;;;5.63;1.67;;;17.00;99.90;;;;;;5042455;28;20488;-80
2022/10/06 11:45:12;;;;;;;7.50;1.53;;;16.90;99.90;;;;;;5042874;28;20486;-82
2022/10/06 11:47:58;;;;;;;12.40;2.17;;;16.90;99.90;;;;;;5044412;28;20448;-83
2022/10/06 11:50:34;;;;;;;5.53;1.83;;;16.90;99.90;;;;;;5043244;28;20406;-81
2022/10/06 11:53:02;;;;;;;5.80;1.80;;;16.90;99.90;;;;;;5042103;28;20791;-82
2022/10/06 11:55:31;;;;;;;5.00;1.33;;;16.90;99.90;;;;;;5043244;28;20493;-82
2022/10/06 11:58:06;;;;;;;4.87;1.60;;;16.90;99.90;;;;;;5050066;28;20428;-81
2022/10/06 12:00:55;;;;;;;7.17;1.87;;;17.00;99.90;;;;;;5054069;28;20390;-82
2022/10/06 12:04:08;;;;;;;5.67;1.40;;;17.00;99.90;;;;;;5052270;28;20437;-82
2022/10/06 12:07:03;;;;;;;5.40;1.60;;;17.00;99.90;;;;;;5046833;28;20888;-81
2022/10/06 12:09:47;;;;;;;4.70;2.10;;;17.10;99.90;;;;;;5053565;28;20493;-82
2022/10/06 12:12:43;;;;;;;5.10;1.87;;;17.10;99.90;;;;;;5052642;28;20413;-81
2022/10/06 12:16:06;;;;;;;5.43;1.50;;;17.10;99.90;;;;;;5053770;28;20485;-82
2022/10/06 12:19:06;;;;;;;5.57;1.63;;;17.20;99.90;;;;;;5049756;28;20454;-81
2022/10/06 12:21:49;;;;;;;6.00;1.40;;;17.20;99.90;;;;;;5052331;28;20405;-82
2022/10/06 12:24:36;;;;;;;6.70;1.60;;;17.30;99.90;;;;;;5050542;28;20516;-82
2022/10/06 12:27:28;;;;;;;7.87;1.93;;;17.30;99.90;;;;;;5050551;28;20497;-83
2022/10/06 12:30:03;;;;;;;4.03;1.13;;;17.40;99.90;;;;;;5052355;28;20515;-83
2022/10/06 12:32:46;;;;;;;6.47;1.60;;;17.40;99.90;;;;;;5050625;28;20438;-81
2022/10/06 12:35:24;;;;;;;4.43;1.53;;;17.50;99.90;;;;;;5049179;28;20463;-81
2022/10/06 12:37:54;;;;;;;5.63;1.47;;;17.50;99.90;;;;;;5049623;28;20417;-82
2022/10/06 12:40:54;;;;;;;5.23;1.43;;;17.50;99.90;;;;;;5050586;28;20417;-82
2022/10/06 12:43:55;;;;;;;5.57;1.70;;;17.50;99.90;;;;;;4964822;28;20442;-81
2022/10/06 12:46:43;;;;;;;7.03;1.63;;;17.60;99.90;;;;;;5040451;28;20540;-80
2022/10/06 12:49:35;;;;;;;3.97;2.00;;;17.60;99.90;;;;;;5040252;28;20474;-80
2022/10/06 12:52:19;;;;;;;5.70;1.53;;;17.60;99.90;;;;;;5038900;28;20432;-82
2022/10/06 12:55:03;;;;;;;4.40;1.33;;;17.60;99.70;;;;;;5039313;28;20470;-79
2022/10/06 12:57:45;;;;;;;4.00;1.30;;;17.60;99.60;;;;;;5039252;28;20429;-81
2022/10/06 13:00:38;;;;;;;6.80;1.87;;;17.70;99.80;;;;;;5040670;28;20518;-81
2022/10/06 13:03:13;;;;;;;5.13;2.00;;;17.70;99.80;;;;;;5038092;28;20850;-82
2022/10/06 13:05:48;;;;;;;7.00;2.03;;;17.70;99.90;;;;;;5040273;28;21049;-81
2022/10/06 13:08:24;;;;;;;4.90;1.90;;;17.80;99.90;;;;;;5039031;28;20953;-80
2022/10/06 13:11:11;;;;;;;6.10;2.00;;;17.80;99.90;;;;;;5037758;28;20431;-82
2022/10/06 13:13:47;;;;;;;3.17;1.50;;;17.90;99.80;;;;;;5037952;28;20482;-83
2022/10/06 13:16:16;;;;;;;4.90;1.60;;;17.90;99.70;;;;;;5041098;28;20863;-82
2022/10/06 13:18:44;;;;;;;6.40;1.77;;;18.00;99.70;;;;;;5045299;28;20451;-80
2022/10/06 13:21:14;;;;;;;5.23;1.43;;;18.00;99.70;;;;;;5049075;28;20455;-80
2022/10/06 13:23:45;;;;;;;9.03;1.77;;;18.00;99.50;;;;;;5048779;28;20439;-83
2022/10/06 13:26:21;;;;;;;5.70;1.43;;;18.00;99.50;;;;;;5049608;28;20490;-82
2022/10/06 13:28:57;;;;;;;4.30;1.40;;;18.10;99.20;;;;;;5041251;28;20963;-82
2022/10/06 13:31:27;;;;;;;4.80;1.67;;;18.10;99.10;;;;;;5041115;28;20477;-83
2022/10/06 13:34:00;;;;;;;7.57;1.87;;;18.10;99.00;;;;;;5041285;28;20472;-81